Time;durP1;ratioP1;P1;durP2;ratioP2;P2;SDS_P1;SDS_P2;PMS_P1;PMS_P2;Temp;Humidity;BMP_temperature;BMP_pressure;BME280_temperature;BME280_humidity;BME280_pressure;Samples;Min_cycle;Max_cycle;Signal;HPM_P1;HPM_P2
2022/06/22 00:01:40;;;;;;;12.40;8.00;;;;;;;-141.29;100.00;58932.97;5090257;28;20199;-74
2022/06/22 00:04:18;;;;;;;13.67;8.47;;;;;;;-141.29;100.00;58932.97;5088205;28;20204;-75
2022/06/22 00:06:54;;;;;;;12.33;7.87;;;;;;;-141.29;100.00;58932.97;5094094;28;20207;-75
2022/06/22 00:09:25;;;;;;;14.07;8.30;;;;;;;-141.29;100.00;58932.97;5094188;28;20676;-74
2022/06/22 00:11:52;;;;;;;10.90;7.97;;;;;;;-141.29;100.00;58932.97;5093989;28;20662;-74
2022/06/22 00:14:24;;;;;;;13.60;8.23;;;;;;;-141.29;100.00;58932.97;5094008;28;20195;-74
2022/06/22 00:16:53;;;;;;;11.67;8.43;;;;;;;-141.29;100.00;58932.97;5094103;28;20693;-73
2022/06/22 00:19:31;;;;;;;11.63;8.20;;;;;;;-141.29;100.00;58932.97;5093943;28;20206;-73
2022/06/22 00:21:59;;;;;;;9.47;7.67;;;;;;;-141.29;100.00;58932.97;5093844;28;20631;-74
2022/06/22 00:24:55;;;;;;;14.77;8.20;;;;;;;-141.29;100.00;58932.97;5085472;28;20565;-75
2022/06/22 00:27:30;;;;;;;19.30;8.13;;;;;;;-141.29;100.00;58932.97;5093687;28;20200;-74
2022/06/22 00:30:16;;;;;;;14.37;7.77;;;;;;;-141.29;100.00;58932.97;5094184;28;20203;-75
2022/06/22 00:32:55;;;;;;;12.20;8.03;;;;;;;-141.29;100.00;58932.97;5075286;28;20227;-73
2022/06/22 00:35:51;;;;;;;12.83;7.80;;;;;;;-141.29;100.00;58932.97;5093969;28;20199;-75
2022/06/22 00:38:21;;;;;;;10.10;8.00;;;;;;;-141.29;100.00;58932.97;5090754;28;20659;-73
2022/06/22 00:40:52;;;;;;;15.23;8.80;;;;;;;-141.29;100.00;58932.97;5093740;28;20249;-74
2022/06/22 00:43:19;;;;;;;12.80;7.83;;;;;;;-141.29;100.00;58932.97;5076901;28;20204;-72
2022/06/22 00:45:50;;;;;;;14.10;8.57;;;;;;;-141.29;100.00;58932.97;5090184;28;20217;-74
2022/06/22 00:48:24;;;;;;;17.00;8.60;;;;;;;-141.29;100.00;58932.97;5093431;28;20722;-75
2022/06/22 00:51:00;;;;;;;8.97;7.63;;;;;;;-141.29;100.00;58932.97;5093395;28;20231;-74
2022/06/22 00:53:34;;;;;;;11.93;8.17;;;;;;;-141.29;100.00;58932.97;5093490;28;20195;-74
2022/06/22 00:56:09;;;;;;;13.63;9.20;;;;;;;-141.29;100.00;58932.97;5093625;28;20233;-74
2022/06/22 00:58:44;;;;;;;14.33;9.50;;;;;;;-141.29;100.00;58932.97;5093571;28;20202;-75
2022/06/22 01:01:20;;;;;;;17.47;9.33;;;;;;;-141.29;100.00;58932.97;5079407;28;20195;-74
2022/06/22 01:03:53;;;;;;;17.13;8.83;;;;;;;-141.29;100.00;58932.97;5092978;28;20211;-74
2022/06/22 01:06:28;;;;;;;17.47;8.90;;;;;;;-141.29;100.00;58932.97;5093131;28;20563;-73
2022/06/22 01:09:03;;;;;;;11.47;8.70;;;;;;;-141.29;100.00;58932.97;5093217;28;20207;-74
2022/06/22 01:14:25;;;;;;;13.63;7.97;;;;;;;-141.29;100.00;58932.97;5092959;28;20207;-74
2022/06/22 01:16:57;;;;;;;10.80;8.07;;;;;;;-141.29;100.00;58932.97;5092162;28;20207;-75
2022/06/22 01:19:44;;;;;;;11.40;8.77;;;;;;;-141.29;100.00;58932.97;5093263;28;20204;-75
2022/06/22 01:22:33;;;;;;;13.27;9.20;;;;;;;-141.29;100.00;58932.97;5092716;28;20661;-73
2022/06/22 01:25:13;;;;;;;13.17;8.73;;;;;;;-141.29;100.00;58932.97;5092677;28;20650;-76
2022/06/22 01:27:43;;;;;;;14.80;8.60;;;;;;;-141.29;100.00;58932.97;5093058;28;20195;-73
2022/06/22 01:30:21;;;;;;;11.63;8.10;;;;;;;-141.29;100.00;58932.97;5093097;28;20291;-74
2022/06/22 01:32:51;;;;;;;13.03;9.07;;;;;;;-141.29;100.00;58932.97;5092361;28;20235;-75
2022/06/22 01:35:23;;;;;;;13.80;8.73;;;;;;;-141.29;100.00;58932.97;5078489;28;20196;-73
2022/06/22 01:37:51;;;;;;;15.63;8.50;;;;;;;-141.29;100.00;58932.97;5092521;28;20596;-75
2022/06/22 01:40:23;;;;;;;12.43;8.60;;;;;;;-141.29;100.00;58932.97;5092398;28;20214;-74
2022/06/22 01:42:57;;;;;;;12.47;8.60;;;;;;;-141.29;100.00;58932.97;5092773;28;20662;-74
2022/06/22 01:45:33;;;;;;;15.27;8.93;;;;;;;-141.29;100.00;58932.97;5092378;28;20595;-75
2022/06/22 01:48:05;;;;;;;11.90;8.13;;;;;;;-141.29;100.00;58932.97;5079705;28;20211;-74
2022/06/22 01:50:39;;;;;;;16.03;8.80;;;;;;;-141.29;100.00;58932.97;5092344;28;20344;-74
2022/06/22 01:53:16;;;;;;;23.80;10.33;;;;;;;-141.29;100.00;58932.97;5092288;28;20230;-74
2022/06/22 01:55:52;;;;;;;15.53;9.30;;;;;;;-141.29;100.00;58932.97;5091864;28;20574;-75
2022/06/22 01:58:39;;;;;;;10.53;8.40;;;;;;;-141.29;100.00;58932.97;5092100;28;20199;-76
2022/06/22 02:01:16;;;;;;;11.43;8.90;;;;;;;-141.29;100.00;58932.97;5091312;28;20192;-74
2022/06/22 02:03:54;;;;;;;13.77;9.00;;;;;;;-141.29;100.00;58932.97;5092215;28;20204;-73
2022/06/22 02:09:21;;;;;;;13.87;9.20;;;;;;;-141.29;100.00;58932.97;5091956;28;20210;-76
2022/06/22 02:12:18;;;;;;;12.80;8.67;;;;;;;-141.29;100.00;58932.97;5091972;28;20615;-73
2022/06/22 02:14:45;;;;;;;11.93;9.00;;;;;;;-141.29;100.00;58932.97;5091367;28;20718;-74
2022/06/22 02:17:18;;;;;;;11.70;9.03;;;;;;;-141.29;100.00;58932.97;5091988;28;20195;-74
2022/06/22 02:19:46;;;;;;;13.17;9.70;;;;;;;-141.29;100.00;58932.97;5091734;28;20207;-73
2022/06/22 02:22:14;;;;;;;10.07;8.70;;;;;;;-141.29;100.00;58932.97;5091772;28;20257;-74
2022/06/22 02:24:47;;;;;;;13.67;9.67;;;;;;;-141.29;100.00;58932.97;5091681;28;20635;-73
2022/06/22 02:27:17;;;;;;;17.87;9.23;;;;;;;-141.29;100.00;58932.97;5091593;28;20260;-74
2022/06/22 02:29:48;;;;;;;14.70;9.33;;;;;;;-141.29;100.00;58932.97;5091889;28;20206;-74
2022/06/22 02:32:17;;;;;;;11.27;9.07;;;;;;;-141.29;100.00;58932.97;5091591;28;20652;-74
2022/06/22 02:34:48;;;;;;;11.63;9.37;;;;;;;-141.29;100.00;58932.97;5091491;28;20203;-74
2022/06/22 02:37:18;;;;;;;17.10;8.63;;;;;;;-141.29;100.00;58932.97;5091662;28;20203;-74
2022/06/22 02:39:50;;;;;;;16.83;9.90;;;;;;;-141.29;100.00;58932.97;5091313;28;20635;-75
2022/06/22 02:45:03;;;;;;;16.00;10.17;;;;;;;-141.29;100.00;58932.97;5092187;28;20207;-73
2022/06/22 02:47:44;;;;;;;13.50;10.03;;;;;;;-141.29;100.00;58932.97;5097079;28;20682;-76
2022/06/22 02:50:19;;;;;;;13.90;9.93;;;;;;;-141.29;100.00;58932.97;5091048;28;20314;-74
2022/06/22 02:52:50;;;;;;;15.50;9.57;;;;;;;-141.29;100.00;58932.97;5091217;28;20229;-74
2022/06/22 02:55:20;;;;;;;14.50;10.40;;;;;;;-141.29;100.00;58932.97;5091239;28;20202;-76
2022/06/22 02:57:56;;;;;;;16.13;10.13;;;;;;;-141.29;100.00;58932.97;5091238;28;20207;-73
2022/06/22 03:00:29;;;;;;;15.27;9.87;;;;;;;-141.29;100.00;58932.97;5091100;28;20230;-76
2022/06/22 03:03:03;;;;;;;15.23;9.77;;;;;;;-141.29;100.00;58932.97;5090786;28;20199;-73
2022/06/22 03:05:31;;;;;;;14.10;10.30;;;;;;;-141.29;100.00;58932.97;5091187;28;20210;-74
2022/06/22 03:08:01;;;;;;;16.93;10.20;;;;;;;-141.29;100.00;58932.97;5091238;28;20203;-75
2022/06/22 03:10:32;;;;;;;16.83;10.00;;;;;;;-141.29;100.00;58932.97;5091192;28;20203;-74
2022/06/22 03:13:00;;;;;;;16.30;10.70;;;;;;;-141.29;100.00;58932.97;5091017;28;20355;-74
2022/06/22 03:15:32;;;;;;;22.90;11.00;;;;;;;-141.29;100.00;58932.97;5091127;28;20203;-74
2022/06/22 03:18:01;;;;;;;15.57;10.70;;;;;;;-141.29;100.00;58932.97;5091446;28;20199;-74
2022/06/22 03:20:35;;;;;;;18.53;10.87;;;;;;;-141.29;100.00;58932.97;5090958;28;20286;-75
2022/06/22 03:23:09;;;;;;;17.33;11.20;;;;;;;-141.29;100.00;58932.97;5078478;28;20674;-74
2022/06/22 03:25:42;;;;;;;20.73;11.70;;;;;;;-141.29;100.00;58932.97;5090858;28;20674;-73
2022/06/22 03:28:15;;;;;;;22.70;11.80;;;;;;;-141.29;100.00;58932.97;5091451;28;20207;-74
2022/06/22 03:30:49;;;;;;;19.07;12.67;;;;;;;-141.29;100.00;58932.97;5091086;28;20207;-74
2022/06/22 03:33:26;;;;;;;25.80;14.07;;;;;;;-141.29;100.00;58932.97;5090421;28;20230;-73
2022/06/22 03:35:56;;;;;;;19.90;12.43;;;;;;;-141.29;100.00;58932.97;5090355;28;20211;-74
2022/06/22 03:38:27;;;;;;;15.40;11.83;;;;;;;-141.29;100.00;58932.97;5091185;28;20204;-74
2022/06/22 03:40:57;;;;;;;16.73;11.60;;;;;;;-141.29;100.00;58932.97;5093497;28;20227;-73
2022/06/22 03:43:27;;;;;;;17.67;11.57;;;;;;;-141.29;100.00;58932.97;5094576;28;20199;-74
2022/06/22 03:46:01;;;;;;;13.73;11.07;;;;;;;-141.29;100.00;58932.97;5094950;28;20207;-72
2022/06/22 03:48:31;;;;;;;15.00;11.10;;;;;;;-141.29;100.00;58932.97;5094327;28;20740;-74
2022/06/22 03:51:05;;;;;;;24.33;11.63;;;;;;;-141.29;100.00;58932.97;5094759;28;20204;-72
2022/06/22 03:53:35;;;;;;;17.13;11.40;;;;;;;-141.29;100.00;58932.97;5094408;28;20242;-74
2022/06/22 03:56:07;;;;;;;26.77;11.40;;;;;;;-141.29;100.00;58932.97;5094916;28;20203;-74
2022/06/22 03:58:34;;;;;;;24.17;12.07;;;;;;;-141.29;100.00;58932.97;5094413;28;20207;-75
2022/06/22 04:01:05;;;;;;;30.03;18.57;;;;;;;-141.29;100.00;58932.97;5094039;28;20195;-73
2022/06/22 04:03:32;;;;;;;55.30;30.07;;;;;;;-141.29;100.00;58932.97;5094522;28;20268;-74
2022/06/22 04:06:03;;;;;;;47.53;25.93;;;;;;;-141.29;100.00;58932.97;5094284;28;20214;-74
2022/06/22 04:08:33;;;;;;;42.63;23.63;;;;;;;-141.29;100.00;58932.97;5094228;28;20201;-75
2022/06/22 04:11:06;;;;;;;34.00;20.90;;;;;;;-141.29;100.00;58932.97;5094026;28;20200;-75
2022/06/22 04:13:42;;;;;;;37.67;19.77;;;;;;;-141.29;100.00;58932.97;5094242;28;20227;-74
2022/06/22 04:16:15;;;;;;;33.40;19.40;;;;;;;-141.29;100.00;58932.97;5094348;28;20201;-74
2022/06/22 04:18:53;;;;;;;33.63;19.70;;;;;;;-141.29;100.00;58932.97;5094136;28;20265;-74
2022/06/22 04:21:25;;;;;;;30.17;18.83;;;;;;;-141.29;100.00;58932.97;5093946;28;20210;-74
2022/06/22 04:23:56;;;;;;;32.60;19.13;;;;;;;-141.29;100.00;58932.97;5094205;28;20209;-74
2022/06/22 04:26:28;;;;;;;37.37;19.47;;;;;;;-141.29;100.00;58932.97;5093697;28;20257;-75
2022/06/22 04:29:00;;;;;;;29.40;18.07;;;;;;;-141.29;100.00;58932.97;5093846;28;20655;-74
2022/06/22 04:31:35;;;;;;;21.07;13.80;;;;;;;-141.29;100.00;58932.97;5093341;28;20544;-73
2022/06/22 04:34:07;;;;;;;22.67;12.40;;;;;;;-141.29;100.00;58932.97;5094280;28;20199;-75
2022/06/22 04:36:41;;;;;;;21.27;12.47;;;;;;;-141.29;100.00;58932.97;5093914;28;20207;-74
2022/06/22 04:39:17;;;;;;;26.33;12.30;;;;;;;-141.29;100.00;58932.97;5093958;28;20202;-74
2022/06/22 04:41:45;;;;;;;21.67;11.50;;;;;;;-141.29;100.00;58932.97;5093325;28;20254;-74
2022/06/22 04:44:16;;;;;;;19.77;11.63;;;;;;;-141.29;100.00;58932.97;5093633;28;20195;-75
2022/06/22 04:46:47;;;;;;;20.97;12.77;;;;;;;-141.29;100.00;58932.97;5093301;28;20203;-75
2022/06/22 04:49:23;;;;;;;22.57;12.73;;;;;;;-141.29;100.00;58932.97;5096515;28;20227;-74
2022/06/22 04:51:55;;;;;;;21.63;12.97;;;;;;;-141.29;100.00;58932.97;5092586;28;20237;-75
2022/06/22 04:54:26;;;;;;;16.30;11.03;;;;;;;-141.29;100.00;58932.97;5093647;28;20210;-73
2022/06/22 04:56:55;;;;;;;16.17;11.13;;;;;;;-141.29;100.00;58932.97;5093477;28;20218;-74
2022/06/22 04:59:23;;;;;;;22.23;11.33;;;;;;;-141.29;100.00;58932.97;5093319;28;20614;-75
2022/06/22 05:01:57;;;;;;;25.73;11.33;;;;;;;-141.29;100.00;58932.97;5092720;28;20231;-74
2022/06/22 05:04:29;;;;;;;24.37;11.10;;;;;;;-141.29;100.00;58932.97;5093256;28;20208;-74
2022/06/22 05:07:05;;;;;;;19.90;11.53;;;;;;;-141.29;100.00;58932.97;5093272;28;20303;-74
2022/06/22 05:09:42;;;;;;;17.77;10.63;;;;;;;-141.29;100.00;58932.97;5093094;28;20285;-74
2022/06/22 05:12:14;;;;;;;17.73;10.60;;;;;;;-141.29;100.00;58932.97;5074931;28;20702;-74
2022/06/22 05:14:44;;;;;;;19.83;11.33;;;;;;;-141.29;100.00;58932.97;5093311;28;20215;-74
2022/06/22 05:17:20;;;;;;;15.53;11.10;;;;;;;-141.29;100.00;58932.97;5092735;28;20224;-74
2022/06/22 05:19:51;;;;;;;17.57;11.07;;;;;;;-141.29;100.00;58932.97;5092948;28;20200;-74
2022/06/22 05:22:19;;;;;;;17.77;11.23;;;;;;;-141.29;100.00;58932.97;5092534;28;20235;-73
2022/06/22 05:24:51;;;;;;;18.40;11.60;;;;;;;-141.29;100.00;58932.97;5093036;28;20202;-74
2022/06/22 05:27:24;;;;;;;25.53;11.53;;;;;;;-141.29;100.00;58932.97;5092801;28;20197;-74
2022/06/22 05:29:57;;;;;;;30.93;10.90;;;;;;;-141.29;100.00;58932.97;5093129;28;20220;-74
2022/06/22 05:32:31;;;;;;;21.27;11.87;;;;;;;-141.29;100.00;58932.97;5092313;28;20229;-72
2022/06/22 05:35:01;;;;;;;14.37;11.30;;;;;;;-141.29;100.00;58932.97;5092709;28;20248;-76
2022/06/22 05:37:31;;;;;;;18.63;10.13;;;;;;;-141.29;100.00;58932.97;5074354;28;20294;-73
2022/06/22 05:39:59;;;;;;;17.17;10.40;;;;;;;-141.29;100.00;58932.97;5074463;28;20207;-73
2022/06/22 05:42:30;;;;;;;18.17;10.40;;;;;;;-141.29;100.00;58932.97;5092121;28;20239;-74
2022/06/22 05:44:57;;;;;;;18.83;10.73;;;;;;;-141.29;100.00;58932.97;5074120;28;20216;-72
2022/06/22 05:47:31;;;;;;;16.13;10.30;;;;;;;-141.29;100.00;58932.97;5092212;28;20299;-73
2022/06/22 05:50:05;;;;;;;16.50;10.03;;;;;;;-141.29;100.00;58932.97;5088295;28;20226;-73
2022/06/22 05:52:37;;;;;;;13.63;10.00;;;;;;;-141.29;100.00;58932.97;5092253;28;20224;-74
2022/06/22 05:55:14;;;;;;;17.63;9.60;;;;;;;-141.29;100.00;58932.97;5092202;28;20199;-74
2022/06/22 05:57:48;;;;;;;12.13;9.33;;;;;;;-141.29;100.00;58932.97;5092037;28;20204;-77
2022/06/22 06:00:19;;;;;;;15.33;9.40;;;;;;;-141.29;100.00;58932.97;5092167;28;20203;-75
2022/06/22 06:02:59;;;;;;;16.33;8.60;;;;;;;-141.29;100.00;58932.97;5092100;28;20261;-73
2022/06/22 06:05:31;;;;;;;11.07;9.00;;;;;;;-141.29;100.00;58932.97;5092071;28;20633;-74
2022/06/22 06:08:01;;;;;;;16.07;9.47;;;;;;;-141.29;100.00;58932.97;5092033;28;20211;-75
2022/06/22 06:10:33;;;;;;;14.27;9.00;;;;;;;-141.29;100.00;58932.97;5091873;28;20196;-73
2022/06/22 06:13:03;;;;;;;16.43;9.40;;;;;;;-141.29;100.00;58932.97;5091876;28;20696;-74
2022/06/22 06:15:33;;;;;;;15.07;10.37;;;;;;;-141.29;100.00;58932.97;5091781;28;20204;-75
2022/06/22 06:18:03;;;;;;;15.00;9.70;;;;;;;-141.29;100.00;58932.97;5091845;28;20215;-76
2022/06/22 06:20:35;;;;;;;17.43;9.10;;;;;;;-141.29;100.00;58932.97;5091402;28;20207;-74
2022/06/22 06:23:07;;;;;;;15.17;8.60;;;;;;;-141.29;100.00;58932.97;5091622;28;20195;-75
2022/06/22 06:28:33;;;;;;;13.00;9.67;;;;;;;-141.29;100.00;58932.97;5081025;28;20813;-73
2022/06/22 06:31:06;;;;;;;13.67;8.77;;;;;;;-141.29;100.00;58932.97;5091596;28;20288;-74
2022/06/22 06:33:38;;;;;;;14.37;9.17;;;;;;;-141.29;100.00;58932.97;5091008;28;20231;-75
2022/06/22 06:36:13;;;;;;;11.10;9.53;;;;;;;-141.29;100.00;58932.97;5091490;28;20345;-74
2022/06/22 06:38:43;;;;;;;12.53;9.23;;;;;;;-141.29;100.00;58932.97;5091284;28;20261;-75
2022/06/22 06:41:15;;;;;;;14.03;9.60;;;;;;;-141.29;100.00;58932.97;5091446;28;20663;-74
2022/06/22 06:43:48;;;;;;;16.70;9.50;;;;;;;-141.29;100.00;58932.97;5091511;28;20368;-74
2022/06/22 06:46:19;;;;;;;21.40;9.70;;;;;;;-141.29;100.00;58932.97;5091431;28;20264;-74
2022/06/22 06:48:55;;;;;;;12.67;8.90;;;;;;;-141.29;100.00;58932.97;5091594;28;20230;-76
2022/06/22 06:51:24;;;;;;;21.00;10.20;;;;;;;-141.29;100.00;58932.97;5080974;28;20668;-74
2022/06/22 06:53:57;;;;;;;11.73;9.30;;;;;;;-141.29;100.00;58932.97;5091533;28;20270;-73
2022/06/22 06:56:29;;;;;;;14.37;9.13;;;;;;;-141.29;100.00;58932.97;5091073;28;20196;-74
2022/06/22 06:59:01;;;;;;;17.47;9.37;;;;;;;-141.29;100.00;58932.97;5091408;28;20234;-74
2022/06/22 07:01:32;;;;;;;15.10;10.30;;;;;;;-141.29;100.00;58932.97;5091431;28;20204;-74
2022/06/22 07:04:07;;;;;;;17.67;10.60;;;;;;;-141.29;100.00;58932.97;5091057;28;20203;-72
2022/06/22 07:06:34;;;;;;;13.97;10.57;;;;;;;-141.29;100.00;58932.97;5077156;28;20206;-74
2022/06/22 07:09:08;;;;;;;16.43;10.30;;;;;;;-141.29;100.00;58932.97;5091374;28;20208;-74
2022/06/22 07:11:42;;;;;;;13.70;10.73;;;;;;;-141.29;100.00;58932.97;5091390;28;20210;-76
2022/06/22 07:14:16;;;;;;;17.40;11.23;;;;;;;-141.29;100.00;58932.97;5091178;28;20754;-74
2022/06/22 07:16:44;;;;;;;15.00;10.93;;;;;;;-141.29;100.00;58932.97;5081034;28;20195;-74
2022/06/22 07:19:19;;;;;;;21.87;11.27;;;;;;;-141.29;100.00;58932.97;5095763;28;20261;-73
2022/06/22 07:21:52;;;;;;;17.50;11.20;;;;;;;-141.29;100.00;58932.97;5095220;28;20210;-74
2022/06/22 07:24:26;;;;;;;15.17;10.77;;;;;;;-141.29;100.00;58932.97;5095316;28;20199;-74
2022/06/22 07:27:01;;;;;;;26.40;11.83;;;;;;;-141.29;100.00;58932.97;5095324;28;20302;-74
2022/06/22 07:29:35;;;;;;;16.80;12.77;;;;;;;-141.29;100.00;58932.97;5094885;28;20203;-74
2022/06/22 07:32:12;;;;;;;16.03;12.10;;;;;;;-141.29;100.00;58932.97;5095242;28;20203;-74
2022/06/22 07:34:48;;;;;;;17.40;11.60;;;;;;;-141.29;100.00;58932.97;5094741;28;20263;-76
2022/06/22 07:37:19;;;;;;;35.63;13.97;;;;;;;-141.29;100.00;58932.97;5094747;28;20203;-74
2022/06/22 07:39:53;;;;;;;25.83;13.77;;;;;;;-141.29;100.00;58932.97;5094745;28;20278;-75
2022/06/22 07:42:21;;;;;;;20.10;13.40;;;;;;;-141.29;100.00;58932.97;5095106;28;20259;-74
2022/06/22 07:44:49;;;;;;;19.90;12.83;;;;;;;-141.29;100.00;58932.97;5094461;28;20679;-73
2022/06/22 07:47:27;;;;;;;23.63;13.40;;;;;;;-141.29;100.00;58932.97;5094572;28;20674;-74
2022/06/22 07:50:00;;;;;;;19.40;13.97;;;;;;;-141.29;100.00;58932.97;5094650;28;20228;-74
2022/06/22 07:52:32;;;;;;;22.60;15.53;;;;;;;-141.29;100.00;58932.97;5094609;28;20212;-73
2022/06/22 07:55:04;;;;;;;20.33;14.07;;;;;;;-141.29;100.00;58932.97;5094841;28;20235;-74
2022/06/22 07:57:40;;;;;;;19.53;15.53;;;;;;;-141.29;100.00;58932.97;5094328;28;20199;-76
2022/06/22 08:00:13;;;;;;;25.70;15.67;;;;;;;-141.29;100.00;58932.97;5094491;28;20196;-73
2022/06/22 08:02:51;;;;;;;24.70;18.23;;;;;;;-141.29;100.00;58932.97;5094220;28;20204;-75
2022/06/22 08:05:23;;;;;;;30.07;19.07;;;;;;;-141.29;100.00;58932.97;5094539;28;20247;-75
2022/06/22 08:07:56;;;;;;;36.03;19.83;;;;;;;-141.29;100.00;58932.97;5094651;28;20228;-75
2022/06/22 08:10:27;;;;;;;36.67;20.07;;;;;;;-141.29;100.00;58932.97;5094149;28;20568;-73
2022/06/22 08:13:02;;;;;;;22.13;17.80;;;;;;;-141.29;100.00;58932.97;5094144;28;20387;-74
2022/06/22 08:15:35;;;;;;;24.63;17.60;;;;;;;-141.29;100.00;58932.97;5094203;28;20682;-73
2022/06/22 08:18:02;;;;;;;35.83;17.87;;;;;;;-141.29;100.00;58932.97;5094312;28;20330;-73
2022/06/22 08:20:35;;;;;;;27.63;17.53;;;;;;;-141.29;100.00;58932.97;5094061;28;20204;-74
2022/06/22 08:23:05;;;;;;;28.67;16.40;;;;;;;-141.29;100.00;58932.97;5093920;28;20209;-74
2022/06/22 08:25:34;;;;;;;20.93;16.57;;;;;;;-141.29;100.00;58932.97;5093808;28;20681;-74
2022/06/22 08:28:04;;;;;;;22.33;16.90;;;;;;;-141.29;100.00;58932.97;5094100;28;20262;-76
2022/06/22 08:30:33;;;;;;;22.93;16.40;;;;;;;-141.29;100.00;58932.97;5093974;28;20206;-74
2022/06/22 08:33:05;;;;;;;22.70;16.90;;;;;;;-141.29;100.00;58932.97;5093588;28;20202;-74
2022/06/22 08:35:37;;;;;;;25.53;16.23;;;;;;;-141.29;100.00;58932.97;5093873;28;20222;-73
2022/06/22 08:38:09;;;;;;;22.73;15.03;;;;;;;-141.29;100.00;58932.97;5093458;28;20230;-74
2022/06/22 08:40:42;;;;;;;25.00;16.43;;;;;;;-141.29;100.00;58932.97;5093486;28;20206;-74
2022/06/22 08:43:20;;;;;;;18.30;13.43;;;;;;;-141.29;100.00;58932.97;5093599;28;20201;-72
2022/06/22 08:46:46;;;;;;;18.37;12.73;;;;;;;-141.29;100.00;58932.97;5093489;28;20199;-75
2022/06/22 08:49:36;;;;;;;20.00;11.53;;;;;;;-141.29;100.00;58932.97;5063316;28;20598;-74
2022/06/22 08:52:38;;;;;;;14.33;10.10;;;;;;;-141.29;100.00;58932.97;5094331;28;20203;-73
2022/06/22 08:55:18;;;;;;;15.63;11.60;;;;;;;-141.29;100.00;58932.97;5089218;28;20235;-74
2022/06/22 08:58:08;;;;;;;22.80;11.50;;;;;;;-141.29;100.00;58932.97;5093590;28;20200;-73
2022/06/22 09:00:41;;;;;;;22.60;12.70;;;;;;;-141.29;100.00;58932.97;5092894;28;20214;-72
2022/06/22 09:03:43;;;;;;;17.93;11.93;;;;;;;-141.29;100.00;58932.97;5093075;28;20223;-75
2022/06/22 09:06:23;;;;;;;24.10;11.97;;;;;;;-141.29;100.00;58932.97;5081138;28;20614;-73
2022/06/22 09:09:14;;;;;;;23.37;12.80;;;;;;;-141.29;100.00;58932.97;5092898;28;20212;-74
2022/06/22 09:11:50;;;;;;;17.47;11.30;;;;;;;-141.29;100.00;58932.97;5089726;28;20199;-75
2022/06/22 09:14:38;;;;;;;40.37;12.43;;;;;;;-141.29;100.00;58932.97;5092480;28;20729;-74
2022/06/22 09:17:35;;;;;;;18.60;11.37;;;;;;;-141.29;100.00;58932.97;5092358;28;20200;-73
2022/06/22 09:20:16;;;;;;;17.70;11.13;;;;;;;-141.29;100.00;58932.97;5092721;28;20207;-74
2022/06/22 09:22:55;;;;;;;19.43;10.63;;;;;;;-141.29;100.00;58932.97;5092763;28;20288;-75
2022/06/22 09:25:29;;;;;;;17.10;10.13;;;;;;;-141.29;100.00;58932.97;5092723;28;20290;-74
2022/06/22 09:28:02;;;;;;;17.23;9.13;;;;;;;-141.29;100.00;58932.97;5091780;28;20213;-73
2022/06/22 09:30:53;;;;;;;20.23;10.90;;;;;;;-141.29;100.00;58932.97;5092448;28;20199;-75
2022/06/22 09:34:00;;;;;;;36.10;12.50;;;;;;;-141.29;100.00;58932.97;5092337;28;20199;-73
2022/06/22 09:36:57;;;;;;;86.73;16.73;;;;;;;-141.29;100.00;58932.97;5010280;28;20200;-75
2022/06/22 09:40:02;;;;;;;73.60;14.30;;;;;;;-141.29;100.00;58932.97;5083709;28;20206;-74
2022/06/22 09:42:56;;;;;;;22.30;9.70;;;;;;;-141.29;100.00;58932.97;5081614;28;20248;-74
2022/06/22 09:45:45;;;;;;;14.63;9.43;;;;;;;-141.29;100.00;58932.97;5091437;28;20716;-74
2022/06/22 09:48:33;;;;;;;18.10;9.40;;;;;;;-141.29;100.00;58932.97;5092470;28;20205;-73
2022/06/22 09:51:25;;;;;;;20.30;9.20;;;;;;;-141.29;100.00;58932.97;5090001;28;20199;-74
2022/06/22 09:56:19;;;;;;;11.90;8.03;;;;;;;-141.29;100.00;58932.97;5091955;28;20314;-75
2022/06/22 09:57:12;;;;;;;30.50;10.23;;;;;;;-141.29;100.00;58932.97;5092062;28;20643;-73
2022/06/22 09:59:57;;;;;;;14.10;8.53;;;;;;;-141.29;100.00;58932.97;5092065;28;20285;-74
2022/06/22 10:02:49;;;;;;;18.23;8.90;;;;;;;-141.29;100.00;58932.97;5092001;28;20209;-75
2022/06/22 10:05:48;;;;;;;12.93;8.80;;;;;;;-141.29;100.00;58932.97;5091800;28;20631;-75
2022/06/22 10:08:49;;;;;;;11.50;8.43;;;;;;;-141.29;100.00;58932.97;5091967;28;20213;-77
2022/06/22 10:11:26;;;;;;;17.70;8.93;;;;;;;-141.29;100.00;58932.97;5091708;28;20203;-74
2022/06/22 10:14:31;;;;;;;17.13;9.80;;;;;;;-141.29;100.00;58932.97;5091825;28;20237;-74
2022/06/22 10:17:15;;;;;;;16.47;8.53;;;;;;;-141.29;100.00;58932.97;5040245;28;20221;-76
2022/06/22 10:20:14;;;;;;;16.17;8.00;;;;;;;-141.29;100.00;58932.97;5067030;28;20215;-75
2022/06/22 10:22:55;;;;;;;14.77;7.50;;;;;;;-141.29;100.00;58932.97;5081112;28;20224;-74
2022/06/22 10:25:43;;;;;;;14.23;8.27;;;;;;;-141.29;100.00;58932.97;5091481;28;20209;-75
2022/06/22 10:28:32;;;;;;;16.03;9.00;;;;;;;-141.29;100.00;58932.97;5091523;28;20822;-74
2022/06/22 10:31:08;;;;;;;16.83;9.10;;;;;;;-141.29;100.00;58932.97;5091895;28;20201;-74
2022/06/22 10:34:09;;;;;;;16.80;8.87;;;;;;;-141.29;100.00;58932.97;5091281;28;20277;-72
2022/06/22 10:37:14;;;;;;;24.67;9.53;;;;;;;-141.29;100.00;58932.97;5072089;28;20752;-74
2022/06/22 10:40:02;;;;;;;13.73;8.73;;;;;;;-141.29;100.00;58932.97;5091149;28;20255;-73
2022/06/22 10:45:41;;;;;;;22.23;9.30;;;;;;;-141.29;100.00;58932.97;5091312;28;20217;-73
2022/06/22 10:48:57;;;;;;;14.10;8.87;;;;;;;-141.29;100.00;58932.97;5091264;28;20226;-74
2022/06/22 10:51:37;;;;;;;17.20;9.83;;;;;;;-141.29;100.00;58932.97;5011964;28;20606;-74
2022/06/22 10:54:26;;;;;;;15.63;9.47;;;;;;;-141.29;100.00;58932.97;5076933;28;20245;-75
2022/06/22 10:57:11;;;;;;;14.10;9.07;;;;;;;-141.29;100.00;58932.97;5091739;28;20199;-74
2022/06/22 11:00:05;;;;;;;17.43;9.40;;;;;;;-141.29;100.00;58932.97;5091128;28;20203;-75
2022/06/22 11:03:22;;;;;;;17.40;8.93;;;;;;;-141.29;100.00;58932.97;5091246;28;20235;-74
2022/06/22 11:06:05;;;;;;;21.57;8.97;;;;;;;-141.29;100.00;58932.97;5069072;28;20211;-74
2022/06/22 11:08:56;;;;;;;15.27;8.80;;;;;;;-141.29;100.00;58932.97;5091299;28;20207;-75
2022/06/22 11:11:40;;;;;;;18.27;9.03;;;;;;;-141.29;100.00;58932.97;5091303;28;20338;-75
2022/06/22 11:14:36;;;;;;;20.10;9.17;;;;;;;-141.29;100.00;58932.97;5091067;28;20281;-75
2022/06/22 11:17:29;;;;;;;20.93;9.13;;;;;;;-141.29;100.00;58932.97;5091391;28;20206;-75
2022/06/22 11:20:19;;;;;;;20.60;9.47;;;;;;;-141.29;100.00;58932.97;5091385;28;20363;-75
2022/06/22 11:22:50;;;;;;;20.43;9.00;;;;;;;-141.29;100.00;58932.97;5091159;28;20208;-75
2022/06/22 11:31:50;;;;;;;13.70;8.90;;;;;;;-141.29;100.00;58932.97;5091084;28;20203;-76
2022/06/22 11:34:45;;;;;;;15.07;8.20;;;;;;;-141.29;100.00;58932.97;5091086;28;20284;-74
2022/06/22 11:37:22;;;;;;;12.90;8.83;;;;;;;-141.29;100.00;58932.97;5090828;28;20195;-74
2022/06/22 11:40:25;;;;;;;17.17;9.80;;;;;;;-141.29;100.00;58932.97;5090966;28;20202;-74
2022/06/22 11:43:05;;;;;;;12.40;9.07;;;;;;;-141.29;100.00;58932.97;5072892;28;20690;-75
2022/06/22 11:45:54;;;;;;;20.20;8.67;;;;;;;-141.29;100.00;58932.97;5091042;28;20205;-74
2022/06/22 11:48:59;;;;;;;12.27;9.10;;;;;;;-141.29;100.00;58932.97;5091215;28;20554;-75
2022/06/22 11:51:51;;;;;;;15.10;8.87;;;;;;;-141.29;100.00;58932.97;5091122;28;20201;-74
2022/06/22 11:54:44;;;;;;;12.10;8.87;;;;;;;-141.29;100.00;58932.97;5069625;28;20726;-77
2022/06/22 11:57:29;;;;;;;14.67;9.70;;;;;;;-141.29;100.00;58932.97;5082025;28;20201;-75
2022/06/22 12:00:14;;;;;;;12.33;9.17;;;;;;;-141.29;100.00;58932.97;5091070;28;20285;-75
2022/06/22 12:03:18;;;;;;;18.23;9.40;;;;;;;-141.29;100.00;58932.97;5076414;28;20208;-75